sensor_id;sensor_type;location;lat;lon;timestamp;P1;durP1;ratioP1;P2;durP2;ratioP2
6193;SDS011;3130;41.564;23.280;2023-12-22T00:01:56;9.97;;;7.43;;
6193;SDS011;3130;41.564;23.280;2023-12-22T00:04:23;10.43;;;6.50;;
6193;SDS011;3130;41.564;23.280;2023-12-22T00:06:52;13.07;;;7.37;;
6193;SDS011;3130;41.564;23.280;2023-12-22T00:09:20;11.60;;;7.03;;
6193;SDS011;3130;41.564;23.280;2023-12-22T00:11:47;11.17;;;7.90;;
6193;SDS011;3130;41.564;23.280;2023-12-22T00:14:14;10.87;;;7.57;;
6193;SDS011;3130;41.564;23.280;2023-12-22T00:16:41;12.07;;;7.00;;
6193;SDS011;3130;41.564;23.280;2023-12-22T00:19:09;12.43;;;6.83;;
6193;SDS011;3130;41.564;23.280;2023-12-22T00:21:36;11.80;;;8.10;;
6193;SDS011;3130;41.564;23.280;2023-12-22T00:24:05;12.33;;;7.40;;
6193;SDS011;3130;41.564;23.280;2023-12-22T00:26:32;10.63;;;7.83;;
6193;SDS011;3130;41.564;23.280;2023-12-22T00:28:59;11.57;;;6.97;;
6193;SDS011;3130;41.564;23.280;2023-12-22T00:31:27;10.93;;;6.90;;
6193;SDS011;3130;41.564;23.280;2023-12-22T00:33:54;13.70;;;7.50;;
6193;SDS011;3130;41.564;23.280;2023-12-22T00:36:21;10.80;;;7.07;;
6193;SDS011;3130;41.564;23.280;2023-12-22T00:38:49;11.67;;;7.20;;
6193;SDS011;3130;41.564;23.280;2023-12-22T00:41:18;13.03;;;7.53;;
6193;SDS011;3130;41.564;23.280;2023-12-22T00:43:46;11.80;;;7.07;;
6193;SDS011;3130;41.564;23.280;2023-12-22T00:46:13;11.93;;;7.30;;
6193;SDS011;3130;41.564;23.280;2023-12-22T00:48:40;12.17;;;6.73;;
6193;SDS011;3130;41.564;23.280;2023-12-22T00:51:07;11.67;;;6.23;;
6193;SDS011;3130;41.564;23.280;2023-12-22T00:53:35;11.67;;;7.60;;
6193;SDS011;3130;41.564;23.280;2023-12-22T00:56:02;12.60;;;7.37;;
6193;SDS011;3130;41.564;23.280;2023-12-22T00:58:32;12.33;;;7.80;;
6193;SDS011;3130;41.564;23.280;2023-12-22T01:00:59;11.40;;;7.90;;
6193;SDS011;3130;41.564;23.280;2023-12-22T01:03:27;10.40;;;6.57;;
6193;SDS011;3130;41.564;23.280;2023-12-22T01:05:54;14.60;;;7.97;;
6193;SDS011;3130;41.564;23.280;2023-12-22T01:08:21;9.23;;;6.60;;
6193;SDS011;3130;41.564;23.280;2023-12-22T01:10:48;11.70;;;7.13;;
6193;SDS011;3130;41.564;23.280;2023-12-22T01:13:16;13.73;;;7.77;;
6193;SDS011;3130;41.564;23.280;2023-12-22T01:15:45;14.63;;;7.97;;
6193;SDS011;3130;41.564;23.280;2023-12-22T01:18:12;10.37;;;6.67;;
6193;SDS011;3130;41.564;23.280;2023-12-22T01:20:39;10.87;;;7.13;;
6193;SDS011;3130;41.564;23.280;2023-12-22T01:23:06;9.53;;;6.07;;
6193;SDS011;3130;41.564;23.280;2023-12-22T01:25:34;10.80;;;6.97;;
6193;SDS011;3130;41.564;23.280;2023-12-22T01:28:01;10.30;;;6.87;;
6193;SDS011;3130;41.564;23.280;2023-12-22T01:30:28;11.07;;;5.87;;
6193;SDS011;3130;41.564;23.280;2023-12-22T01:32:57;8.67;;;6.20;;
6193;SDS011;3130;41.564;23.280;2023-12-22T01:35:24;8.20;;;5.77;;
6193;SDS011;3130;41.564;23.280;2023-12-22T01:37:52;10.00;;;6.47;;
6193;SDS011;3130;41.564;23.280;2023-12-22T01:40:19;11.47;;;6.90;;
6193;SDS011;3130;41.564;23.280;2023-12-22T01:42:47;10.60;;;6.20;;
6193;SDS011;3130;41.564;23.280;2023-12-22T01:45:14;9.83;;;5.60;;
6193;SDS011;3130;41.564;23.280;2023-12-22T01:47:41;9.13;;;6.07;;
6193;SDS011;3130;41.564;23.280;2023-12-22T01:50:11;7.57;;;5.57;;
6193;SDS011;3130;41.564;23.280;2023-12-22T01:52:39;9.03;;;5.97;;
6193;SDS011;3130;41.564;23.280;2023-12-22T01:55:10;8.00;;;6.10;;
6193;SDS011;3130;41.564;23.280;2023-12-22T01:57:38;9.03;;;6.57;;
6193;SDS011;3130;41.564;23.280;2023-12-22T02:00:07;9.40;;;6.30;;
6193;SDS011;3130;41.564;23.280;2023-12-22T02:02:34;9.37;;;6.50;;
6193;SDS011;3130;41.564;23.280;2023-12-22T02:05:03;14.63;;;7.20;;
6193;SDS011;3130;41.564;23.280;2023-12-22T02:07:32;18.70;;;12.30;;
6193;SDS011;3130;41.564;23.280;2023-12-22T02:10:00;20.90;;;12.70;;
6193;SDS011;3130;41.564;23.280;2023-12-22T02:12:28;20.07;;;12.73;;
6193;SDS011;3130;41.564;23.280;2023-12-22T02:14:56;19.70;;;13.10;;
6193;SDS011;3130;41.564;23.280;2023-12-22T02:17:24;22.27;;;14.23;;
6193;SDS011;3130;41.564;23.280;2023-12-22T02:19:56;23.37;;;13.90;;
6193;SDS011;3130;41.564;23.280;2023-12-22T02:24:56;18.33;;;13.23;;
6193;SDS011;3130;41.564;23.280;2023-12-22T02:27:25;20.67;;;14.20;;
6193;SDS011;3130;41.564;23.280;2023-12-22T02:30:01;18.37;;;12.67;;
6193;SDS011;3130;41.564;23.280;2023-12-22T02:32:34;18.33;;;13.10;;
6193;SDS011;3130;41.564;23.280;2023-12-22T02:35:04;19.43;;;12.97;;
6193;SDS011;3130;41.564;23.280;2023-12-22T02:37:36;20.37;;;12.60;;
6193;SDS011;3130;41.564;23.280;2023-12-22T02:40:07;16.80;;;12.10;;
6193;SDS011;3130;41.564;23.280;2023-12-22T02:42:36;17.97;;;12.37;;
6193;SDS011;3130;41.564;23.280;2023-12-22T02:45:04;22.17;;;13.43;;
6193;SDS011;3130;41.564;23.280;2023-12-22T02:47:33;17.17;;;12.10;;
6193;SDS011;3130;41.564;23.280;2023-12-22T02:50:00;23.73;;;13.87;;
6193;SDS011;3130;41.564;23.280;2023-12-22T02:52:27;17.97;;;11.43;;
6193;SDS011;3130;41.564;23.280;2023-12-22T02:54:58;20.40;;;12.03;;
6193;SDS011;3130;41.564;23.280;2023-12-22T02:57:25;15.57;;;10.77;;
6193;SDS011;3130;41.564;23.280;2023-12-22T02:59:52;20.97;;;11.67;;
6193;SDS011;3130;41.564;23.280;2023-12-22T03:02:20;17.80;;;11.77;;
6193;SDS011;3130;41.564;23.280;2023-12-22T03:04:47;18.07;;;11.37;;
6193;SDS011;3130;41.564;23.280;2023-12-22T03:07:14;22.33;;;12.83;;
6193;SDS011;3130;41.564;23.280;2023-12-22T03:09:42;21.90;;;12.70;;
6193;SDS011;3130;41.564;23.280;2023-12-22T03:12:11;19.37;;;13.40;;
6193;SDS011;3130;41.564;23.280;2023-12-22T03:14:38;21.80;;;13.90;;
6193;SDS011;3130;41.564;23.280;2023-12-22T03:17:06;17.83;;;12.70;;
6193;SDS011;3130;41.564;23.280;2023-12-22T03:19:35;19.13;;;13.13;;
6193;SDS011;3130;41.564;23.280;2023-12-22T03:22:02;18.37;;;13.33;;
6193;SDS011;3130;41.564;23.280;2023-12-22T03:24:30;18.23;;;12.53;;
6193;SDS011;3130;41.564;23.280;2023-12-22T03:26:57;20.20;;;14.10;;
6193;SDS011;3130;41.564;23.280;2023-12-22T03:29:26;21.33;;;13.17;;
6193;SDS011;3130;41.564;23.280;2023-12-22T03:31:53;20.63;;;13.23;;
6193;SDS011;3130;41.564;23.280;2023-12-22T03:34:20;20.53;;;12.20;;
6193;SDS011;3130;41.564;23.280;2023-12-22T03:36:47;19.43;;;11.80;;
6193;SDS011;3130;41.564;23.280;2023-12-22T03:39:14;19.90;;;12.13;;
6193;SDS011;3130;41.564;23.280;2023-12-22T03:41:42;17.67;;;12.17;;
6193;SDS011;3130;41.564;23.280;2023-12-22T03:44:09;18.10;;;11.77;;
6193;SDS011;3130;41.564;23.280;2023-12-22T03:46:38;19.63;;;11.97;;
6193;SDS011;3130;41.564;23.280;2023-12-22T03:49:05;18.97;;;10.40;;
6193;SDS011;3130;41.564;23.280;2023-12-22T03:51:32;17.23;;;11.63;;
6193;SDS011;3130;41.564;23.280;2023-12-22T03:53:59;21.33;;;12.00;;
6193;SDS011;3130;41.564;23.280;2023-12-22T03:56:27;13.90;;;10.27;;
6193;SDS011;3130;41.564;23.280;2023-12-22T03:58:55;16.63;;;10.60;;
6193;SDS011;3130;41.564;23.280;2023-12-22T04:01:22;17.10;;;12.70;;
6193;SDS011;3130;41.564;23.280;2023-12-22T04:03:51;16.97;;;12.63;;
6193;SDS011;3130;41.564;23.280;2023-12-22T04:06:18;25.47;;;13.13;;
6193;SDS011;3130;41.564;23.280;2023-12-22T04:08:45;20.43;;;15.43;;
6193;SDS011;3130;41.564;23.280;2023-12-22T04:11:12;27.10;;;15.97;;
6193;SDS011;3130;41.564;23.280;2023-12-22T04:13:40;26.43;;;15.80;;
6193;SDS011;3130;41.564;23.280;2023-12-22T04:16:07;24.03;;;15.63;;
6193;SDS011;3130;41.564;23.280;2023-12-22T04:18:34;29.13;;;16.57;;
6193;SDS011;3130;41.564;23.280;2023-12-22T04:21:03;21.00;;;14.33;;
6193;SDS011;3130;41.564;23.280;2023-12-22T04:23:30;26.13;;;14.87;;
6193;SDS011;3130;41.564;23.280;2023-12-22T04:25:58;23.23;;;15.30;;
6193;SDS011;3130;41.564;23.280;2023-12-22T04:28:27;25.17;;;15.63;;
6193;SDS011;3130;41.564;23.280;2023-12-22T04:30:54;20.87;;;15.17;;
6193;SDS011;3130;41.564;23.280;2023-12-22T04:33:21;21.60;;;14.17;;
6193;SDS011;3130;41.564;23.280;2023-12-22T04:35:48;24.47;;;15.63;;
6193;SDS011;3130;41.564;23.280;2023-12-22T04:38:17;21.53;;;14.67;;
6193;SDS011;3130;41.564;23.280;2023-12-22T04:40:44;23.13;;;15.43;;
6193;SDS011;3130;41.564;23.280;2023-12-22T04:43:11;21.80;;;14.73;;
6193;SDS011;3130;41.564;23.280;2023-12-22T04:45:39;22.33;;;15.27;;
6193;SDS011;3130;41.564;23.280;2023-12-22T04:48:06;37.47;;;21.33;;
6193;SDS011;3130;41.564;23.280;2023-12-22T04:50:34;37.67;;;21.70;;
6193;SDS011;3130;41.564;23.280;2023-12-22T04:53:01;27.33;;;17.23;;
6193;SDS011;3130;41.564;23.280;2023-12-22T04:55:30;30.37;;;18.53;;
6193;SDS011;3130;41.564;23.280;2023-12-22T04:57:57;26.67;;;17.37;;
6193;SDS011;3130;41.564;23.280;2023-12-22T05:00:24;24.17;;;17.40;;
6193;SDS011;3130;41.564;23.280;2023-12-22T05:02:52;24.93;;;16.33;;
6193;SDS011;3130;41.564;23.280;2023-12-22T05:05:19;24.63;;;15.67;;
6193;SDS011;3130;41.564;23.280;2023-12-22T05:07:46;26.00;;;16.37;;
6193;SDS011;3130;41.564;23.280;2023-12-22T05:10:14;21.97;;;15.33;;
6193;SDS011;3130;41.564;23.280;2023-12-22T05:12:43;24.87;;;16.27;;
6193;SDS011;3130;41.564;23.280;2023-12-22T05:15:10;24.40;;;16.03;;
6193;SDS011;3130;41.564;23.280;2023-12-22T05:17:37;26.37;;;17.67;;
6193;SDS011;3130;41.564;23.280;2023-12-22T05:20:06;27.27;;;16.60;;
6193;SDS011;3130;41.564;23.280;2023-12-22T05:22:36;25.60;;;17.73;;
6193;SDS011;3130;41.564;23.280;2023-12-22T05:25:04;31.30;;;18.07;;
6193;SDS011;3130;41.564;23.280;2023-12-22T05:27:32;28.70;;;17.47;;
6193;SDS011;3130;41.564;23.280;2023-12-22T05:30:01;28.93;;;18.47;;
6193;SDS011;3130;41.564;23.280;2023-12-22T05:32:29;29.00;;;18.67;;
6193;SDS011;3130;41.564;23.280;2023-12-22T05:34:56;36.00;;;20.13;;
6193;SDS011;3130;41.564;23.280;2023-12-22T05:37:24;37.57;;;22.27;;
6193;SDS011;3130;41.564;23.280;2023-12-22T05:39:51;32.33;;;22.97;;
6193;SDS011;3130;41.564;23.280;2023-12-22T05:42:18;34.23;;;21.93;;
6193;SDS011;3130;41.564;23.280;2023-12-22T05:44:46;38.17;;;23.30;;
6193;SDS011;3130;41.564;23.280;2023-12-22T05:47:16;33.87;;;23.27;;
6193;SDS011;3130;41.564;23.280;2023-12-22T05:49:44;32.17;;;22.43;;
6193;SDS011;3130;41.564;23.280;2023-12-22T05:52:11;34.90;;;24.17;;
6193;SDS011;3130;41.564;23.280;2023-12-22T05:54:39;35.63;;;22.23;;
6193;SDS011;3130;41.564;23.280;2023-12-22T05:57:07;34.93;;;22.23;;
6193;SDS011;3130;41.564;23.280;2023-12-22T05:59:34;27.93;;;20.13;;
6193;SDS011;3130;41.564;23.280;2023-12-22T06:02:02;32.90;;;21.10;;
6193;SDS011;3130;41.564;23.280;2023-12-22T06:04:30;26.20;;;17.77;;
6193;SDS011;3130;41.564;23.280;2023-12-22T06:06:58;28.80;;;18.90;;
6193;SDS011;3130;41.564;23.280;2023-12-22T06:09:25;28.73;;;21.13;;
6193;SDS011;3130;41.564;23.280;2023-12-22T06:11:53;29.83;;;21.83;;
6193;SDS011;3130;41.564;23.280;2023-12-22T06:14:20;32.27;;;20.13;;
6193;SDS011;3130;41.564;23.280;2023-12-22T06:16:48;33.67;;;21.80;;
6193;SDS011;3130;41.564;23.280;2023-12-22T06:19:16;33.13;;;23.57;;
6193;SDS011;3130;41.564;23.280;2023-12-22T06:21:44;39.30;;;27.03;;
6193;SDS011;3130;41.564;23.280;2023-12-22T06:24:12;38.10;;;26.37;;
6193;SDS011;3130;41.564;23.280;2023-12-22T06:26:39;42.77;;;27.27;;
6193;SDS011;3130;41.564;23.280;2023-12-22T06:29:07;44.80;;;28.43;;
6193;SDS011;3130;41.564;23.280;2023-12-22T06:31:34;41.57;;;27.70;;
6193;SDS011;3130;41.564;23.280;2023-12-22T06:34:01;44.53;;;27.57;;
6193;SDS011;3130;41.564;23.280;2023-12-22T06:36:29;36.20;;;26.30;;
6193;SDS011;3130;41.564;23.280;2023-12-22T06:38:58;39.10;;;25.30;;
6193;SDS011;3130;41.564;23.280;2023-12-22T06:41:25;48.70;;;33.50;;
6193;SDS011;3130;41.564;23.280;2023-12-22T06:43:53;34.83;;;24.77;;
6193;SDS011;3130;41.564;23.280;2023-12-22T06:46:22;37.97;;;24.47;;
6193;SDS011;3130;41.564;23.280;2023-12-22T06:48:51;41.70;;;24.97;;
6193;SDS011;3130;41.564;23.280;2023-12-22T06:51:19;46.70;;;27.10;;
6193;SDS011;3130;41.564;23.280;2023-12-22T06:53:47;41.03;;;28.33;;
6193;SDS011;3130;41.564;23.280;2023-12-22T06:56:17;39.30;;;26.67;;
6193;SDS011;3130;41.564;23.280;2023-12-22T06:58:46;37.40;;;24.13;;
6193;SDS011;3130;41.564;23.280;2023-12-22T07:01:20;30.53;;;20.73;;
6193;SDS011;3130;41.564;23.280;2023-12-22T07:03:48;30.90;;;18.80;;
6193;SDS011;3130;41.564;23.280;2023-12-22T07:06:16;26.00;;;18.30;;
6193;SDS011;3130;41.564;23.280;2023-12-22T07:08:43;29.87;;;18.37;;
6193;SDS011;3130;41.564;23.280;2023-12-22T07:11:26;28.23;;;17.80;;
6193;SDS011;3130;41.564;23.280;2023-12-22T07:13:53;26.30;;;17.57;;
6193;SDS011;3130;41.564;23.280;2023-12-22T07:16:21;22.30;;;16.80;;
6193;SDS011;3130;41.564;23.280;2023-12-22T07:18:48;31.27;;;17.63;;
6193;SDS011;3130;41.564;23.280;2023-12-22T07:21:16;26.63;;;17.73;;
6193;SDS011;3130;41.564;23.280;2023-12-22T07:23:44;26.53;;;17.80;;
6193;SDS011;3130;41.564;23.280;2023-12-22T07:26:12;25.67;;;19.07;;
6193;SDS011;3130;41.564;23.280;2023-12-22T07:28:40;28.67;;;18.57;;
6193;SDS011;3130;41.564;23.280;2023-12-22T07:31:07;30.60;;;18.40;;
6193;SDS011;3130;41.564;23.280;2023-12-22T07:33:35;29.23;;;20.13;;
6193;SDS011;3130;41.564;23.280;2023-12-22T07:36:03;32.80;;;21.40;;
6193;SDS011;3130;41.564;23.280;2023-12-22T07:38:30;34.40;;;23.17;;
6193;SDS011;3130;41.564;23.280;2023-12-22T07:40:58;38.57;;;26.03;;
6193;SDS011;3130;41.564;23.280;2023-12-22T07:43:25;36.40;;;24.60;;
6193;SDS011;3130;41.564;23.280;2023-12-22T07:45:56;44.80;;;29.30;;
6193;SDS011;3130;41.564;23.280;2023-12-22T07:48:23;42.40;;;27.40;;
6193;SDS011;3130;41.564;23.280;2023-12-22T07:50:50;59.17;;;34.90;;
6193;SDS011;3130;41.564;23.280;2023-12-22T07:53:18;51.93;;;34.23;;
6193;SDS011;3130;41.564;23.280;2023-12-22T07:55:46;63.30;;;37.83;;
6193;SDS011;3130;41.564;23.280;2023-12-22T07:58:13;49.67;;;35.27;;
6193;SDS011;3130;41.564;23.280;2023-12-22T08:00:42;47.70;;;31.60;;
6193;SDS011;3130;41.564;23.280;2023-12-22T08:03:12;45.97;;;30.53;;
6193;SDS011;3130;41.564;23.280;2023-12-22T08:05:40;46.00;;;30.93;;
6193;SDS011;3130;41.564;23.280;2023-12-22T08:08:07;45.90;;;29.10;;
6193;SDS011;3130;41.564;23.280;2023-12-22T08:10:35;54.27;;;32.00;;
6193;SDS011;3130;41.564;23.280;2023-12-22T08:13:02;49.77;;;29.87;;
6193;SDS011;3130;41.564;23.280;2023-12-22T08:15:29;47.67;;;27.17;;
6193;SDS011;3130;41.564;23.280;2023-12-22T08:17:57;41.73;;;27.43;;
6193;SDS011;3130;41.564;23.280;2023-12-22T08:20:26;42.80;;;27.40;;
6193;SDS011;3130;41.564;23.280;2023-12-22T08:22:54;39.63;;;27.87;;
6193;SDS011;3130;41.564;23.280;2023-12-22T08:25:21;41.03;;;26.60;;
6193;SDS011;3130;41.564;23.280;2023-12-22T08:27:49;45.37;;;25.70;;
6193;SDS011;3130;41.564;23.280;2023-12-22T08:30:17;44.67;;;24.80;;
6193;SDS011;3130;41.564;23.280;2023-12-22T08:32:44;41.80;;;24.07;;
6193;SDS011;3130;41.564;23.280;2023-12-22T08:35:12;41.10;;;25.67;;
6193;SDS011;3130;41.564;23.280;2023-12-22T08:37:41;38.30;;;24.20;;
6193;SDS011;3130;41.564;23.280;2023-12-22T08:40:09;30.47;;;21.03;;
6193;SDS011;3130;41.564;23.280;2023-12-22T08:42:36;31.63;;;19.70;;
6193;SDS011;3130;41.564;23.280;2023-12-22T08:45:05;27.70;;;20.47;;
6193;SDS011;3130;41.564;23.280;2023-12-22T08:47:33;36.37;;;23.40;;
6193;SDS011;3130;41.564;23.280;2023-12-22T08:50:00;33.07;;;22.97;;
6193;SDS011;3130;41.564;23.280;2023-12-22T08:52:29;32.70;;;22.03;;
6193;SDS011;3130;41.564;23.280;2023-12-22T08:54:58;39.23;;;25.93;;
6193;SDS011;3130;41.564;23.280;2023-12-22T08:57:25;45.10;;;28.53;;
6193;SDS011;3130;41.564;23.280;2023-12-22T08:59:53;46.60;;;29.43;;
6193;SDS011;3130;41.564;23.280;2023-12-22T09:02:20;48.47;;;32.20;;
6193;SDS011;3130;41.564;23.280;2023-12-22T09:04:48;46.60;;;29.53;;
6193;SDS011;3130;41.564;23.280;2023-12-22T09:07:16;48.47;;;29.30;;
6193;SDS011;3130;41.564;23.280;2023-12-22T09:09:44;39.43;;;28.07;;
6193;SDS011;3130;41.564;23.280;2023-12-22T09:12:13;46.47;;;29.27;;
6193;SDS011;3130;41.564;23.280;2023-12-22T09:14:41;41.70;;;28.17;;
6193;SDS011;3130;41.564;23.280;2023-12-22T09:17:08;43.03;;;27.43;;
6193;SDS011;3130;41.564;23.280;2023-12-22T09:19:36;36.03;;;23.87;;
6193;SDS011;3130;41.564;23.280;2023-12-22T09:22:04;48.87;;;31.30;;
6193;SDS011;3130;41.564;23.280;2023-12-22T09:24:31;33.30;;;22.80;;
6193;SDS011;3130;41.564;23.280;2023-12-22T09:26:58;38.07;;;25.00;;
6193;SDS011;3130;41.564;23.280;2023-12-22T09:29:29;40.10;;;25.00;;
6193;SDS011;3130;41.564;23.280;2023-12-22T09:31:59;41.20;;;27.17;;
6193;SDS011;3130;41.564;23.280;2023-12-22T09:34:26;39.77;;;25.67;;
6193;SDS011;3130;41.564;23.280;2023-12-22T09:36:54;31.37;;;21.43;;
6193;SDS011;3130;41.564;23.280;2023-12-22T09:39:21;31.50;;;21.67;;
6193;SDS011;3130;41.564;23.280;2023-12-22T09:41:49;57.03;;;37.93;;
6193;SDS011;3130;41.564;23.280;2023-12-22T09:44:17;55.27;;;38.67;;
6193;SDS011;3130;41.564;23.280;2023-12-22T09:46:47;52.93;;;38.37;;
6193;SDS011;3130;41.564;23.280;2023-12-22T09:49:16;64.37;;;42.87;;
6193;SDS011;3130;41.564;23.280;2023-12-22T09:51:45;60.03;;;40.17;;
6193;SDS011;3130;41.564;23.280;2023-12-22T09:54:14;57.50;;;39.63;;
6193;SDS011;3130;41.564;23.280;2023-12-22T09:56:41;55.67;;;37.30;;
6193;SDS011;3130;41.564;23.280;2023-12-22T09:59:09;56.47;;;38.90;;
6193;SDS011;3130;41.564;23.280;2023-12-22T10:01:40;44.87;;;32.70;;
6193;SDS011;3130;41.564;23.280;2023-12-22T10:04:12;54.20;;;36.30;;
6193;SDS011;3130;41.564;23.280;2023-12-22T10:06:39;48.13;;;34.07;;
6193;SDS011;3130;41.564;23.280;2023-12-22T10:09:08;50.67;;;33.53;;
6193;SDS011;3130;41.564;23.280;2023-12-22T10:11:36;55.63;;;37.30;;
6193;SDS011;3130;41.564;23.280;2023-12-22T10:14:04;54.90;;;38.17;;
6193;SDS011;3130;41.564;23.280;2023-12-22T10:16:33;63.00;;;41.37;;
6193;SDS011;3130;41.564;23.280;2023-12-22T10:19:01;57.20;;;37.83;;
6193;SDS011;3130;41.564;23.280;2023-12-22T10:21:32;56.93;;;40.47;;
6193;SDS011;3130;41.564;23.280;2023-12-22T10:23:59;72.93;;;49.60;;
6193;SDS011;3130;41.564;23.280;2023-12-22T10:26:26;67.50;;;42.73;;
6193;SDS011;3130;41.564;23.280;2023-12-22T10:28:55;57.47;;;39.37;;
6193;SDS011;3130;41.564;23.280;2023-12-22T10:31:22;59.00;;;43.33;;
6193;SDS011;3130;41.564;23.280;2023-12-22T10:33:50;60.37;;;42.13;;
6193;SDS011;3130;41.564;23.280;2023-12-22T10:36:18;66.10;;;44.17;;
6193;SDS011;3130;41.564;23.280;2023-12-22T10:38:47;70.23;;;43.60;;
6193;SDS011;3130;41.564;23.280;2023-12-22T10:41:15;67.40;;;45.23;;
6193;SDS011;3130;41.564;23.280;2023-12-22T10:43:42;68.40;;;41.50;;
6193;SDS011;3130;41.564;23.280;2023-12-22T10:46:10;71.67;;;45.37;;
6193;SDS011;3130;41.564;23.280;2023-12-22T10:48:39;74.27;;;48.17;;
6193;SDS011;3130;41.564;23.280;2023-12-22T10:51:09;68.73;;;45.33;;
6193;SDS011;3130;41.564;23.280;2023-12-22T10:53:40;64.17;;;46.97;;
6193;SDS011;3130;41.564;23.280;2023-12-22T10:56:09;64.40;;;41.53;;
6193;SDS011;3130;41.564;23.280;2023-12-22T10:58:37;67.00;;;44.97;;
6193;SDS011;3130;41.564;23.280;2023-12-22T11:01:05;64.83;;;44.83;;
6193;SDS011;3130;41.564;23.280;2023-12-22T11:03:33;71.43;;;46.93;;
6193;SDS011;3130;41.564;23.280;2023-12-22T11:06:06;67.97;;;44.53;;
6193;SDS011;3130;41.564;23.280;2023-12-22T11:08:38;69.80;;;46.37;;
6193;SDS011;3130;41.564;23.280;2023-12-22T11:11:12;71.07;;;49.53;;
6193;SDS011;3130;41.564;23.280;2023-12-22T11:13:50;79.07;;;50.73;;
6193;SDS011;3130;41.564;23.280;2023-12-22T11:16:24;76.63;;;51.20;;
6193;SDS011;3130;41.564;23.280;2023-12-22T11:18:59;84.60;;;50.90;;
6193;SDS011;3130;41.564;23.280;2023-12-22T11:21:27;79.37;;;48.97;;
6193;SDS011;3130;41.564;23.280;2023-12-22T11:23:55;80.63;;;50.70;;
6193;SDS011;3130;41.564;23.280;2023-12-22T11:26:27;63.47;;;42.47;;
6193;SDS011;3130;41.564;23.280;2023-12-22T11:28:55;82.60;;;51.83;;
6193;SDS011;3130;41.564;23.280;2023-12-22T11:31:24;87.30;;;53.10;;
6193;SDS011;3130;41.564;23.280;2023-12-22T11:33:54;80.87;;;51.20;;
6193;SDS011;3130;41.564;23.280;2023-12-22T11:36:22;80.73;;;47.43;;
6193;SDS011;3130;41.564;23.280;2023-12-22T11:38:50;61.73;;;42.23;;
6193;SDS011;3130;41.564;23.280;2023-12-22T11:41:19;91.80;;;53.90;;
6193;SDS011;3130;41.564;23.280;2023-12-22T11:43:52;84.00;;;54.13;;
6193;SDS011;3130;41.564;23.280;2023-12-22T11:46:21;80.93;;;52.63;;
6193;SDS011;3130;41.564;23.280;2023-12-22T11:48:52;83.17;;;50.50;;
6193;SDS011;3130;41.564;23.280;2023-12-22T11:51:22;85.13;;;51.43;;
6193;SDS011;3130;41.564;23.280;2023-12-22T11:53:51;70.67;;;47.00;;
6193;SDS011;3130;41.564;23.280;2023-12-22T11:56:19;68.07;;;45.30;;
6193;SDS011;3130;41.564;23.280;2023-12-22T11:58:46;72.90;;;46.53;;
6193;SDS011;3130;41.564;23.280;2023-12-22T12:01:21;66.63;;;42.77;;
6193;SDS011;3130;41.564;23.280;2023-12-22T12:03:51;70.77;;;45.63;;
6193;SDS011;3130;41.564;23.280;2023-12-22T12:06:30;60.63;;;40.40;;
6193;SDS011;3130;41.564;23.280;2023-12-22T12:09:03;68.77;;;42.13;;
6193;SDS011;3130;41.564;23.280;2023-12-22T12:14:44;78.00;;;49.33;;
6193;SDS011;3130;41.564;23.280;2023-12-22T12:17:19;80.13;;;50.07;;
6193;SDS011;3130;41.564;23.280;2023-12-22T12:19:47;91.77;;;56.40;;
6193;SDS011;3130;41.564;23.280;2023-12-22T12:22:16;98.90;;;58.27;;
6193;SDS011;3130;41.564;23.280;2023-12-22T12:24:43;88.60;;;56.33;;
6193;SDS011;3130;41.564;23.280;2023-12-22T12:27:16;89.77;;;54.47;;
6193;SDS011;3130;41.564;23.280;2023-12-22T12:29:45;97.10;;;55.67;;
6193;SDS011;3130;41.564;23.280;2023-12-22T12:32:13;41.80;;;28.83;;
6193;SDS011;3130;41.564;23.280;2023-12-22T12:34:43;55.93;;;35.20;;
6193;SDS011;3130;41.564;23.280;2023-12-22T12:37:13;46.57;;;31.03;;
6193;SDS011;3130;41.564;23.280;2023-12-22T12:39:41;38.37;;;24.90;;
6193;SDS011;3130;41.564;23.280;2023-12-22T12:42:10;41.33;;;27.53;;
6193;SDS011;3130;41.564;23.280;2023-12-22T12:44:42;32.83;;;22.07;;
6193;SDS011;3130;41.564;23.280;2023-12-22T12:47:11;30.20;;;19.37;;
6193;SDS011;3130;41.564;23.280;2023-12-22T12:49:39;26.27;;;18.10;;
6193;SDS011;3130;41.564;23.280;2023-12-22T12:52:11;25.77;;;18.73;;
6193;SDS011;3130;41.564;23.280;2023-12-22T12:54:39;26.23;;;17.20;;
6193;SDS011;3130;41.564;23.280;2023-12-22T12:57:06;25.93;;;18.70;;
6193;SDS011;3130;41.564;23.280;2023-12-22T12:59:34;36.07;;;20.10;;
6193;SDS011;3130;41.564;23.280;2023-12-22T13:02:01;26.90;;;18.13;;
6193;SDS011;3130;41.564;23.280;2023-12-22T13:04:36;27.80;;;18.13;;
6193;SDS011;3130;41.564;23.280;2023-12-22T13:07:04;32.07;;;19.60;;
6193;SDS011;3130;41.564;23.280;2023-12-22T13:09:34;32.13;;;20.10;;
6193;SDS011;3130;41.564;23.280;2023-12-22T13:12:02;31.03;;;19.50;;
6193;SDS011;3130;41.564;23.280;2023-12-22T13:14:30;28.70;;;19.30;;
6193;SDS011;3130;41.564;23.280;2023-12-22T13:16:58;28.33;;;20.63;;
6193;SDS011;3130;41.564;23.280;2023-12-22T13:19:25;36.73;;;24.70;;
6193;SDS011;3130;41.564;23.280;2023-12-22T13:21:53;68.73;;;44.10;;
6193;SDS011;3130;41.564;23.280;2023-12-22T13:24:21;62.83;;;40.73;;
6193;SDS011;3130;41.564;23.280;2023-12-22T13:27:00;95.97;;;58.60;;
6193;SDS011;3130;41.564;23.280;2023-12-22T13:29:28;103.63;;;59.70;;
6193;SDS011;3130;41.564;23.280;2023-12-22T13:31:56;97.77;;;59.23;;
6193;SDS011;3130;41.564;23.280;2023-12-22T13:34:24;95.10;;;55.90;;
6193;SDS011;3130;41.564;23.280;2023-12-22T13:36:51;85.57;;;52.73;;
6193;SDS011;3130;41.564;23.280;2023-12-22T13:39:19;82.30;;;49.23;;
6193;SDS011;3130;41.564;23.280;2023-12-22T13:41:54;91.80;;;59.07;;
6193;SDS011;3130;41.564;23.280;2023-12-22T13:44:23;91.90;;;55.70;;
6193;SDS011;3130;41.564;23.280;2023-12-22T13:46:50;109.00;;;62.37;;
6193;SDS011;3130;41.564;23.280;2023-12-22T13:49:18;99.07;;;58.50;;
6193;SDS011;3130;41.564;23.280;2023-12-22T13:51:45;104.30;;;64.03;;
6193;SDS011;3130;41.564;23.280;2023-12-22T13:54:13;91.80;;;57.97;;
6193;SDS011;3130;41.564;23.280;2023-12-22T13:56:40;92.30;;;56.97;;
6193;SDS011;3130;41.564;23.280;2023-12-22T13:59:09;93.47;;;62.10;;
6193;SDS011;3130;41.564;23.280;2023-12-22T14:01:39;82.47;;;56.10;;
6193;SDS011;3130;41.564;23.280;2023-12-22T14:04:07;76.70;;;50.57;;
6193;SDS011;3130;41.564;23.280;2023-12-22T14:06:35;83.00;;;50.17;;
6193;SDS011;3130;41.564;23.280;2023-12-22T14:09:04;81.23;;;49.23;;
6193;SDS011;3130;41.564;23.280;2023-12-22T14:11:31;82.70;;;50.17;;
6193;SDS011;3130;41.564;23.280;2023-12-22T14:13:59;75.57;;;47.83;;
6193;SDS011;3130;41.564;23.280;2023-12-22T14:16:26;77.77;;;49.97;;
6193;SDS011;3130;41.564;23.280;2023-12-22T14:18:55;80.43;;;49.40;;
6193;SDS011;3130;41.564;23.280;2023-12-22T14:21:22;81.03;;;51.23;;
6193;SDS011;3130;41.564;23.280;2023-12-22T14:23:49;90.07;;;56.40;;
6193;SDS011;3130;41.564;23.280;2023-12-22T14:26:17;86.67;;;50.57;;
6193;SDS011;3130;41.564;23.280;2023-12-22T14:28:44;72.53;;;42.83;;
6193;SDS011;3130;41.564;23.280;2023-12-22T14:31:15;80.60;;;47.07;;
6193;SDS011;3130;41.564;23.280;2023-12-22T14:33:43;67.37;;;43.00;;
6193;SDS011;3130;41.564;23.280;2023-12-22T14:36:11;70.10;;;42.10;;
6193;SDS011;3130;41.564;23.280;2023-12-22T14:38:39;68.37;;;43.53;;
6193;SDS011;3130;41.564;23.280;2023-12-22T14:41:06;74.67;;;45.27;;
6193;SDS011;3130;41.564;23.280;2023-12-22T14:43:33;78.37;;;49.57;;
6193;SDS011;3130;41.564;23.280;2023-12-22T14:46:01;79.00;;;48.40;;
6193;SDS011;3130;41.564;23.280;2023-12-22T14:48:28;74.77;;;44.37;;